createdAt,value
2016-12-29T00:00:11.074Z,23.71
2016-12-29T00:00:25.857Z,23.79
2016-12-29T00:00:40.648Z,23.63
2016-12-29T00:00:55.433Z,23.7
2016-12-29T00:01:10.301Z,23.7
2016-12-29T00:01:25.166Z,23.63
2016-12-29T00:01:39.961Z,23.64
2016-12-29T00:01:54.703Z,23.59
2016-12-29T00:02:09.563Z,23.53
2016-12-29T00:02:24.429Z,23.57
2016-12-29T00:02:39.177Z,23.62
2016-12-29T00:02:53.940Z,23.59
2016-12-29T00:03:08.742Z,23.5
2016-12-29T00:03:23.538Z,23.48
2016-12-29T00:03:38.395Z,23.48
2016-12-29T00:03:53.191Z,23.55
2016-12-29T00:04:07.973Z,23.42
2016-12-29T00:04:22.775Z,23.41
2016-12-29T00:04:37.593Z,23.52
2016-12-29T00:04:52.417Z,23.53
2016-12-29T00:05:07.192Z,23.47
2016-12-29T00:05:21.988Z,23.42
2016-12-29T00:05:36.811Z,23.48
2016-12-29T00:05:51.570Z,23.6
2016-12-29T00:06:06.379Z,23.59
2016-12-29T00:06:21.274Z,23.63
2016-12-29T00:06:36.108Z,23.63
2016-12-29T00:06:50.898Z,23.66
2016-12-29T00:07:05.687Z,23.64
2016-12-29T00:07:20.830Z,23.63
2016-12-29T00:07:35.643Z,23.66
2016-12-29T00:07:50.527Z,23.62
2016-12-29T00:08:05.305Z,23.57
2016-12-29T00:08:20.105Z,23.62
2016-12-29T00:08:34.903Z,23.59
2016-12-29T00:08:49.763Z,23.6
2016-12-29T00:09:04.511Z,23.53
2016-12-29T00:09:19.301Z,23.57
2016-12-29T00:09:34.153Z,23.53
2016-12-29T00:09:48.952Z,23.56
2016-12-29T00:10:03.774Z,23.45
2016-12-29T00:10:18.634Z,23.59
2016-12-29T00:10:33.428Z,23.52
2016-12-29T00:10:48.170Z,23.52
2016-12-29T00:11:02.930Z,23.56
2016-12-29T00:11:17.708Z,23.5
2016-12-29T00:11:32.558Z,23.59
2016-12-29T00:11:47.325Z,23.53
2016-12-29T00:12:02.362Z,23.52
2016-12-29T00:12:17.412Z,23.42
2016-12-29T00:12:32.434Z,23.47
2016-12-29T00:12:47.228Z,23.5
2016-12-29T00:13:02.016Z,23.5
2016-12-29T00:13:16.822Z,23.56
2016-12-29T00:13:31.563Z,23.47
2016-12-29T00:13:46.349Z,23.48
2016-12-29T00:14:01.178Z,23.56
2016-12-29T00:14:15.973Z,23.52
2016-12-29T00:14:30.724Z,23.53
2016-12-29T00:14:45.481Z,23.45
2016-12-29T00:15:00.289Z,23.47
2016-12-29T00:15:15.041Z,23.45
2016-12-29T00:15:29.814Z,23.45
2016-12-29T00:15:44.583Z,23.4
2016-12-29T00:15:59.416Z,23.41
2016-12-29T00:16:14.233Z,23.42
2016-12-29T00:16:29.003Z,23.41
2016-12-29T00:16:43.816Z,23.45
2016-12-29T00:16:58.613Z,23.44
2016-12-29T00:17:13.378Z,23.42
2016-12-29T00:17:28.194Z,23.37
2016-12-29T00:17:42.961Z,23.45
2016-12-29T00:17:57.735Z,23.37
2016-12-29T00:18:12.535Z,23.38
2016-12-29T00:18:27.313Z,23.35
2016-12-29T00:18:42.095Z,23.45
2016-12-29T00:18:56.894Z,23.4
2016-12-29T00:19:11.705Z,23.47
2016-12-29T00:19:26.507Z,23.5
2016-12-29T00:19:41.314Z,23.42
2016-12-29T00:19:56.089Z,23.45
2016-12-29T00:20:10.937Z,23.55
2016-12-29T00:20:25.701Z,23.48
2016-12-29T00:20:40.485Z,23.59
2016-12-29T00:20:55.336Z,23.6
2016-12-29T00:21:10.080Z,23.6
2016-12-29T00:21:24.839Z,23.59
2016-12-29T00:21:39.625Z,23.53
2016-12-29T00:21:54.457Z,23.59
2016-12-29T00:22:09.250Z,23.6
2016-12-29T00:22:24.352Z,23.55
2016-12-29T00:22:39.131Z,23.62
2016-12-29T00:22:53.923Z,23.67
2016-12-29T00:23:08.732Z,23.75
2016-12-29T00:23:23.528Z,23.62
2016-12-29T00:23:38.226Z,23.6
2016-12-29T00:23:53.013Z,23.63
2016-12-29T00:24:07.854Z,23.67
2016-12-29T00:24:22.683Z,23.7
2016-12-29T00:24:37.510Z,23.72
2016-12-29T00:24:52.253Z,23.71
2016-12-29T00:25:07.035Z,23.64
2016-12-29T00:25:21.887Z,23.6
2016-12-29T00:25:36.722Z,23.57
2016-12-29T00:25:51.517Z,23.57
2016-12-29T00:26:06.286Z,23.62
2016-12-29T00:26:21.097Z,23.62
2016-12-29T00:26:35.841Z,23.56
2016-12-29T00:26:50.649Z,23.55
2016-12-29T00:27:05.396Z,23.5
2016-12-29T00:27:20.139Z,23.56
2016-12-29T00:27:34.970Z,23.52
2016-12-29T00:27:49.721Z,23.59
2016-12-29T00:28:04.469Z,23.5
2016-12-29T00:28:19.209Z,23.44
2016-12-29T00:28:34.002Z,23.5
2016-12-29T00:28:48.933Z,23.55
2016-12-29T00:29:03.687Z,23.44
2016-12-29T00:29:18.509Z,23.52
2016-12-29T00:29:33.332Z,23.48
2016-12-29T00:29:48.125Z,23.45
2016-12-29T00:30:02.910Z,23.42
2016-12-29T00:30:17.640Z,23.4
2016-12-29T00:30:32.513Z,23.41
2016-12-29T00:30:47.354Z,23.38
2016-12-29T00:31:02.192Z,23.41
2016-12-29T00:31:16.954Z,23.29
2016-12-29T00:31:31.790Z,23.35
2016-12-29T00:31:46.570Z,23.29
2016-12-29T00:32:01.442Z,23.19
2016-12-29T00:32:16.231Z,23.18
2016-12-29T00:32:31.082Z,23.18
2016-12-29T00:32:45.863Z,23.14
2016-12-29T00:33:00.713Z,23.07
2016-12-29T00:33:15.486Z,23.15
2016-12-29T00:33:30.254Z,23.15
2016-12-29T00:33:45.062Z,23.12
2016-12-29T00:33:59.840Z,23.07
2016-12-29T00:34:14.617Z,23.1
2016-12-29T00:34:29.419Z,23.03
2016-12-29T00:34:44.240Z,23.12
2016-12-29T00:34:59.025Z,23.04
2016-12-29T00:35:13.797Z,23.09
2016-12-29T00:35:28.571Z,23.06
2016-12-29T00:35:43.382Z,22.99
2016-12-29T00:35:58.196Z,23.06
2016-12-29T00:36:12.996Z,22.97
2016-12-29T00:36:27.839Z,22.94
2016-12-29T00:36:42.653Z,22.99
2016-12-29T00:36:57.491Z,22.86
2016-12-29T00:37:12.270Z,22.91
2016-12-29T00:37:27.425Z,22.99
2016-12-29T00:37:42.290Z,22.97
2016-12-29T00:37:57.131Z,22.89
2016-12-29T00:38:11.958Z,22.91
2016-12-29T00:38:26.757Z,22.96
2016-12-29T00:38:41.637Z,22.92
2016-12-29T00:38:56.480Z,22.85
2016-12-29T00:39:11.231Z,22.88
2016-12-29T00:39:25.966Z,22.89
2016-12-29T00:39:40.723Z,23.03
2016-12-29T00:39:55.467Z,23.04
2016-12-29T00:40:10.319Z,22.94
2016-12-29T00:40:25.105Z,23
2016-12-29T00:40:39.863Z,23.01
2016-12-29T00:40:54.613Z,22.99
2016-12-29T00:41:09.380Z,23.07
2016-12-29T00:41:24.145Z,23.14
2016-12-29T00:41:38.955Z,23.07
2016-12-29T00:41:53.758Z,23.09
2016-12-29T00:42:08.556Z,23.12
2016-12-29T00:42:23.356Z,23.14
2016-12-29T00:42:38.167Z,23.04
2016-12-29T00:42:53.012Z,23.09
2016-12-29T00:43:07.907Z,23.12
2016-12-29T00:43:22.759Z,23.16
2016-12-29T00:43:37.563Z,23.21
2016-12-29T00:43:52.314Z,23.07
2016-12-29T00:44:07.120Z,23.18
2016-12-29T00:44:22.026Z,23.19
2016-12-29T00:44:36.834Z,23.19
2016-12-29T00:44:51.594Z,23.19
2016-12-29T00:45:06.418Z,23.18
2016-12-29T00:45:21.279Z,23.21
2016-12-29T00:45:36.062Z,23.14
2016-12-29T00:45:50.906Z,23.1
2016-12-29T00:46:05.721Z,23.25
2016-12-29T00:46:20.437Z,23.18
2016-12-29T00:46:35.253Z,23.24
2016-12-29T00:46:50.029Z,23.24
2016-12-29T00:47:04.915Z,23.21
2016-12-29T00:47:19.748Z,23.29
2016-12-29T00:47:34.530Z,23.22
2016-12-29T00:47:49.325Z,23.22
2016-12-29T00:48:04.144Z,23.25
2016-12-29T00:48:18.956Z,23.34
2016-12-29T00:48:33.746Z,23.34
2016-12-29T00:48:48.560Z,23.28
2016-12-29T00:49:03.352Z,23.15
2016-12-29T00:49:18.108Z,23.19
2016-12-29T00:49:32.902Z,23.24
2016-12-29T00:49:47.801Z,23.25
2016-12-29T00:50:02.620Z,23.32
2016-12-29T00:50:17.500Z,23.29
2016-12-29T00:50:32.283Z,23.35
2016-12-29T00:50:47.101Z,23.29
2016-12-29T00:51:01.870Z,23.29
2016-12-29T00:51:16.581Z,23.37
2016-12-29T00:51:31.371Z,23.34
2016-12-29T00:51:46.103Z,23.35
2016-12-29T00:52:00.951Z,23.29
2016-12-29T00:52:15.689Z,23.37
2016-12-29T00:52:30.500Z,23.42
2016-12-29T00:52:45.819Z,23.37
2016-12-29T00:53:00.644Z,23.38
2016-12-29T00:53:15.454Z,23.42
2016-12-29T00:53:30.284Z,23.4
2016-12-29T00:53:45.104Z,23.42
2016-12-29T00:53:59.927Z,23.41
2016-12-29T00:54:14.776Z,23.35
2016-12-29T00:54:29.585Z,23.44
2016-12-29T00:54:44.507Z,23.42
2016-12-29T00:54:59.289Z,23.48
2016-12-29T00:55:14.158Z,23.44
2016-12-29T00:55:28.968Z,23.48
2016-12-29T00:55:43.807Z,23.44
2016-12-29T00:55:58.712Z,23.42
2016-12-29T00:56:13.521Z,23.41
2016-12-29T00:56:28.300Z,23.4
2016-12-29T00:56:43.190Z,23.44
2016-12-29T00:56:57.991Z,23.38
2016-12-29T00:57:12.820Z,23.35
2016-12-29T00:57:27.631Z,23.38
2016-12-29T00:57:42.471Z,23.32
2016-12-29T00:57:57.272Z,23.34
2016-12-29T00:58:12.108Z,23.32
2016-12-29T00:58:26.848Z,23.28
2016-12-29T00:58:41.703Z,23.35
2016-12-29T00:58:56.531Z,23.28
2016-12-29T00:59:11.394Z,23.28
2016-12-29T00:59:26.179Z,23.29
2016-12-29T00:59:41.016Z,23.26
2016-12-29T00:59:55.728Z,23.34
2016-12-29T01:00:10.593Z,23.28
2016-12-29T01:00:25.441Z,23.21
2016-12-29T01:00:40.224Z,23.26
2016-12-29T01:00:55.003Z,23.37
2016-12-29T01:01:09.840Z,23.32
2016-12-29T01:01:25.447Z,23.26
2016-12-29T01:01:40.287Z,23.28
2016-12-29T01:01:55.078Z,23.29
2016-12-29T01:02:09.907Z,23.29
2016-12-29T01:02:24.752Z,23.34
2016-12-29T01:02:39.555Z,23.34
2016-12-29T01:02:54.337Z,23.34
2016-12-29T01:03:09.026Z,23.37
2016-12-29T01:03:23.770Z,23.47
2016-12-29T01:03:38.655Z,23.48
2016-12-29T01:03:53.455Z,23.42
2016-12-29T01:04:08.324Z,23.45
2016-12-29T01:04:23.177Z,23.35
2016-12-29T01:04:37.976Z,23.42
2016-12-29T01:04:52.796Z,23.4
2016-12-29T01:05:07.570Z,23.37
2016-12-29T01:05:22.363Z,23.34
2016-12-29T01:05:37.118Z,23.34
2016-12-29T01:05:51.922Z,23.4
2016-12-29T01:06:06.688Z,23.34
2016-12-29T01:06:21.484Z,23.38
2016-12-29T01:06:36.234Z,23.28
2016-12-29T01:06:50.960Z,23.35
2016-12-29T01:07:05.782Z,23.28
2016-12-29T01:07:20.577Z,23.34
2016-12-29T01:07:35.403Z,23.28
2016-12-29T01:07:50.457Z,23.34
2016-12-29T01:08:05.206Z,23.32
2016-12-29T01:08:20.032Z,23.26
2016-12-29T01:08:34.861Z,23.28
2016-12-29T01:08:49.636Z,23.22
2016-12-29T01:09:04.531Z,23.29
2016-12-29T01:09:19.301Z,23.26
2016-12-29T01:09:34.143Z,23.32
2016-12-29T01:09:49.019Z,23.29
2016-12-29T01:10:03.806Z,23.22
2016-12-29T01:10:18.507Z,23.32
2016-12-29T01:10:33.291Z,23.32
2016-12-29T01:10:48.033Z,23.24
2016-12-29T01:11:02.861Z,23.26
2016-12-29T01:11:17.631Z,23.25
2016-12-29T01:11:32.380Z,23.32
2016-12-29T01:11:47.147Z,23.34
2016-12-29T01:12:01.945Z,23.35
2016-12-29T01:12:16.780Z,23.29
2016-12-29T01:12:31.565Z,23.37
2016-12-29T01:12:46.364Z,23.34
2016-12-29T01:13:01.207Z,23.35
2016-12-29T01:13:16.085Z,23.41
2016-12-29T01:13:30.895Z,23.34
2016-12-29T01:13:45.739Z,23.35
2016-12-29T01:14:00.542Z,23.34
2016-12-29T01:14:15.376Z,23.37
2016-12-29T01:14:30.231Z,23.34
2016-12-29T01:14:45.088Z,23.26
2016-12-29T01:14:59.940Z,23.34
2016-12-29T01:15:14.716Z,23.28
2016-12-29T01:15:29.526Z,23.28
2016-12-29T01:15:44.260Z,23.24
2016-12-29T01:15:59.060Z,23.25
2016-12-29T01:16:13.911Z,23.28
2016-12-29T01:16:28.701Z,23.28
2016-12-29T01:16:43.568Z,23.25
2016-12-29T01:16:58.395Z,23.26
2016-12-29T01:17:13.203Z,23.24
2016-12-29T01:17:28.033Z,23.21
2016-12-29T01:17:42.945Z,23.21
2016-12-29T01:17:57.785Z,23.12
2016-12-29T01:18:12.599Z,23.19
2016-12-29T01:18:27.405Z,23.19
2016-12-29T01:18:42.141Z,23.21
2016-12-29T01:18:56.988Z,23.24
2016-12-29T01:19:11.746Z,23.22
2016-12-29T01:19:26.512Z,23.22
2016-12-29T01:19:41.367Z,23.19
2016-12-29T01:19:56.194Z,23.25
2016-12-29T01:20:11.028Z,23.34
2016-12-29T01:20:25.859Z,23.21
2016-12-29T01:20:40.717Z,23.28
2016-12-29T01:20:55.575Z,23.29
2016-12-29T01:21:10.402Z,23.35
2016-12-29T01:21:25.170Z,23.34
2016-12-29T01:21:40.001Z,23.29
2016-12-29T01:21:54.831Z,23.38
2016-12-29T01:22:09.596Z,23.4
2016-12-29T01:22:24.368Z,23.4
2016-12-29T01:22:39.086Z,23.41
2016-12-29T01:22:54.378Z,23.52
2016-12-29T01:23:09.213Z,23.53
2016-12-29T01:23:24.000Z,23.55
2016-12-29T01:23:38.778Z,23.62
2016-12-29T01:23:53.499Z,23.64
2016-12-29T01:24:08.260Z,23.53
2016-12-29T01:24:23.087Z,23.66
2016-12-29T01:24:37.839Z,23.71
2016-12-29T01:24:52.667Z,23.71
2016-12-29T01:25:07.475Z,23.75
2016-12-29T01:25:22.346Z,23.75
2016-12-29T01:25:37.177Z,23.75
2016-12-29T01:25:51.966Z,23.85
2016-12-29T01:26:06.701Z,23.84
2016-12-29T01:26:21.484Z,23.82
2016-12-29T01:26:36.330Z,23.89
2016-12-29T01:26:51.129Z,23.9
2016-12-29T01:27:05.947Z,23.87
2016-12-29T01:27:20.781Z,23.89
2016-12-29T01:27:35.590Z,23.93
2016-12-29T01:27:50.385Z,23.9
2016-12-29T01:28:05.144Z,23.96
2016-12-29T01:28:19.993Z,23.94
2016-12-29T01:28:34.714Z,23.85
2016-12-29T01:28:49.514Z,23.84
2016-12-29T01:29:04.279Z,23.78
2016-12-29T01:29:19.062Z,23.78
2016-12-29T01:29:33.842Z,23.71
2016-12-29T01:29:48.664Z,23.78
2016-12-29T01:30:03.429Z,23.78
2016-12-29T01:30:18.216Z,23.82
2016-12-29T01:30:32.998Z,23.81
2016-12-29T01:30:47.811Z,23.79
2016-12-29T01:31:02.629Z,23.84
2016-12-29T01:31:17.428Z,23.84
2016-12-29T01:31:32.245Z,23.82
2016-12-29T01:31:47.059Z,23.82
2016-12-29T01:32:01.882Z,23.79
2016-12-29T01:32:16.693Z,23.81
2016-12-29T01:32:31.484Z,23.79
2016-12-29T01:32:46.259Z,23.78
2016-12-29T01:33:01.132Z,23.82
2016-12-29T01:33:15.945Z,23.71
2016-12-29T01:33:30.783Z,23.77
2016-12-29T01:33:45.535Z,23.81
2016-12-29T01:34:00.352Z,23.77
2016-12-29T01:34:15.155Z,23.74
2016-12-29T01:34:29.991Z,23.74
2016-12-29T01:34:44.802Z,23.7
2016-12-29T01:34:59.584Z,23.77
2016-12-29T01:35:14.378Z,23.67
2016-12-29T01:35:29.165Z,23.72
2016-12-29T01:35:43.956Z,23.74
2016-12-29T01:35:58.743Z,23.7
2016-12-29T01:36:13.486Z,23.72
2016-12-29T01:36:28.305Z,23.72
2016-12-29T01:36:43.108Z,23.78
2016-12-29T01:36:57.929Z,23.71
2016-12-29T01:37:12.745Z,23.63
2016-12-29T01:37:27.546Z,23.71
2016-12-29T01:37:42.401Z,23.71
2016-12-29T01:37:57.488Z,23.66
2016-12-29T01:38:12.325Z,23.66
2016-12-29T01:38:27.135Z,23.7
2016-12-29T01:38:41.981Z,23.63
2016-12-29T01:38:56.801Z,23.67
2016-12-29T01:39:11.737Z,23.66
2016-12-29T01:39:26.515Z,23.66
2016-12-29T01:39:41.289Z,23.59
2016-12-29T01:39:56.027Z,23.6
2016-12-29T01:40:10.873Z,23.55
2016-12-29T01:40:25.694Z,23.59
2016-12-29T01:40:40.519Z,23.66
2016-12-29T01:40:55.347Z,23.6
2016-12-29T01:41:10.170Z,23.71
2016-12-29T01:41:25.021Z,23.71
2016-12-29T01:41:39.835Z,23.62
2016-12-29T01:41:54.628Z,23.67
2016-12-29T01:42:09.409Z,23.64
2016-12-29T01:42:24.254Z,23.74
2016-12-29T01:42:39.048Z,23.71
2016-12-29T01:42:53.807Z,23.75
2016-12-29T01:43:08.650Z,23.75
2016-12-29T01:43:23.507Z,23.74
2016-12-29T01:43:38.315Z,23.72
2016-12-29T01:43:53.158Z,23.7
2016-12-29T01:44:07.943Z,23.71
2016-12-29T01:44:22.670Z,23.77
2016-12-29T01:44:37.485Z,23.75
2016-12-29T01:44:52.265Z,23.81
2016-12-29T01:45:07.060Z,23.81
2016-12-29T01:45:21.902Z,23.84
2016-12-29T01:45:36.711Z,23.75
2016-12-29T01:45:51.425Z,23.87
2016-12-29T01:46:06.210Z,23.84
2016-12-29T01:46:21.001Z,23.85
2016-12-29T01:46:35.774Z,23.72
2016-12-29T01:46:50.560Z,23.7
2016-12-29T01:47:05.371Z,23.75
2016-12-29T01:47:20.167Z,23.7
2016-12-29T01:47:34.965Z,23.7
2016-12-29T01:47:49.782Z,23.63
2016-12-29T01:48:04.543Z,23.63
2016-12-29T01:48:19.414Z,23.64
2016-12-29T01:48:34.222Z,23.71
2016-12-29T01:48:48.981Z,23.66
2016-12-29T01:49:03.791Z,23.66
2016-12-29T01:49:18.568Z,23.74
2016-12-29T01:49:33.608Z,23.7
2016-12-29T01:49:48.446Z,23.63
2016-12-29T01:50:03.255Z,23.64
2016-12-29T01:50:18.122Z,23.59
2016-12-29T01:50:32.967Z,23.62
2016-12-29T01:50:47.785Z,23.6
2016-12-29T01:51:02.573Z,23.59
2016-12-29T01:51:17.383Z,23.53
2016-12-29T01:51:32.170Z,23.53
2016-12-29T01:51:47.021Z,23.5
2016-12-29T01:52:01.773Z,23.55
2016-12-29T01:52:16.515Z,23.4
2016-12-29T01:52:31.216Z,23.42
2016-12-29T01:52:46.076Z,23.42
2016-12-29T01:53:01.100Z,23.42
2016-12-29T01:53:15.885Z,23.35
2016-12-29T01:53:30.707Z,23.41
2016-12-29T01:53:45.479Z,23.41
2016-12-29T01:54:00.270Z,23.37
2016-12-29T01:54:15.053Z,23.37
2016-12-29T01:54:29.770Z,23.34
2016-12-29T01:54:44.539Z,23.29
2016-12-29T01:54:59.294Z,23.35
2016-12-29T01:55:14.086Z,23.34
2016-12-29T01:55:28.903Z,23.26
2016-12-29T01:55:43.630Z,23.35
2016-12-29T01:55:58.392Z,23.32
2016-12-29T01:56:13.198Z,23.28
2016-12-29T01:56:28.047Z,23.28
2016-12-29T01:56:42.834Z,23.25
2016-12-29T01:56:57.611Z,23.28
2016-12-29T01:57:12.487Z,23.24
2016-12-29T01:57:27.348Z,23.25
2016-12-29T01:57:42.163Z,23.25
2016-12-29T01:57:56.975Z,23.28
2016-12-29T01:58:11.742Z,23.25
2016-12-29T01:58:26.480Z,23.32
2016-12-29T01:58:41.324Z,23.28
2016-12-29T01:58:56.093Z,23.24
2016-12-29T01:59:10.873Z,23.32
2016-12-29T01:59:25.593Z,23.28
2016-12-29T01:59:40.311Z,23.26
2016-12-29T01:59:55.135Z,23.32
2016-12-29T02:00:10.009Z,23.29
2016-12-29T02:00:24.858Z,23.37
2016-12-29T02:00:39.673Z,23.34
2016-12-29T02:00:54.524Z,23.28
2016-12-29T02:01:09.280Z,23.37
2016-12-29T02:01:24.113Z,23.35
2016-12-29T02:01:38.936Z,23.34
2016-12-29T02:01:53.830Z,23.29
2016-12-29T02:02:08.629Z,23.37
2016-12-29T02:02:23.456Z,23.35
2016-12-29T02:02:38.305Z,23.4
2016-12-29T02:02:53.109Z,23.34
2016-12-29T02:03:07.984Z,23.38
2016-12-29T02:03:22.796Z,23.37
2016-12-29T02:03:37.642Z,23.45
2016-12-29T02:03:52.410Z,23.32
2016-12-29T02:04:07.216Z,23.4
2016-12-29T02:04:21.951Z,23.29
2016-12-29T02:04:36.678Z,23.32
2016-12-29T02:04:51.476Z,23.29
2016-12-29T02:05:06.286Z,23.28
2016-12-29T02:05:21.137Z,23.22
2016-12-29T02:05:35.962Z,23.21
2016-12-29T02:05:50.827Z,23.25
2016-12-29T02:06:05.581Z,23.1
2016-12-29T02:06:20.394Z,23.19
2016-12-29T02:06:35.172Z,23.14
2016-12-29T02:06:49.984Z,23.16
2016-12-29T02:07:04.852Z,23.19
2016-12-29T02:07:19.732Z,23.19
2016-12-29T02:07:34.564Z,23.09
2016-12-29T02:07:49.398Z,23.24
2016-12-29T02:08:04.199Z,23.16
2016-12-29T02:08:19.240Z,23.16
2016-12-29T02:08:34.064Z,23.16
2016-12-29T02:08:48.891Z,23.18
2016-12-29T02:09:03.747Z,23.19
2016-12-29T02:09:18.542Z,23.15
2016-12-29T02:09:33.315Z,23.15
2016-12-29T02:09:48.022Z,23.12
2016-12-29T02:10:02.872Z,23.03
2016-12-29T02:10:17.696Z,23
2016-12-29T02:10:32.468Z,23.07
2016-12-29T02:10:47.276Z,23.07
2016-12-29T02:11:02.093Z,23.06
2016-12-29T02:11:16.964Z,23.12
2016-12-29T02:11:31.829Z,23.04
2016-12-29T02:11:46.611Z,23.07
2016-12-29T02:12:01.439Z,23
2016-12-29T02:12:16.269Z,22.96
2016-12-29T02:12:31.052Z,23.04
2016-12-29T02:12:45.851Z,23.07
2016-12-29T02:13:00.585Z,23.04
2016-12-29T02:13:15.364Z,23.09
2016-12-29T02:13:30.184Z,23.09
2016-12-29T02:13:45.019Z,23.12
2016-12-29T02:13:59.975Z,23.07
2016-12-29T02:14:14.815Z,23.12
2016-12-29T02:14:29.609Z,23.07
2016-12-29T02:14:44.373Z,23
2016-12-29T02:14:59.152Z,23.07
2016-12-29T02:15:13.960Z,22.96
2016-12-29T02:15:28.813Z,23
2016-12-29T02:15:43.548Z,23.01
2016-12-29T02:15:58.302Z,23.1
2016-12-29T02:16:13.096Z,23.07
2016-12-29T02:16:27.937Z,23.14
2016-12-29T02:16:42.771Z,23.07
2016-12-29T02:16:57.548Z,23.16
2016-12-29T02:17:12.328Z,23.18
2016-12-29T02:17:27.083Z,23.12
2016-12-29T02:17:41.831Z,23.09
2016-12-29T02:17:56.618Z,23.12
2016-12-29T02:18:11.467Z,23.14
2016-12-29T02:18:26.272Z,23.09
2016-12-29T02:18:41.083Z,23.07
2016-12-29T02:18:55.867Z,23.16
2016-12-29T02:19:10.680Z,23.14
2016-12-29T02:19:25.467Z,23.19
2016-12-29T02:19:40.324Z,23.21
2016-12-29T02:19:55.115Z,23.25
2016-12-29T02:20:09.957Z,23.29
2016-12-29T02:20:24.742Z,23.28
2016-12-29T02:20:39.490Z,23.29
2016-12-29T02:20:54.390Z,23.38
2016-12-29T02:21:09.204Z,23.35
2016-12-29T02:21:23.987Z,23.44
2016-12-29T02:21:38.817Z,23.47
2016-12-29T02:21:53.605Z,23.38
2016-12-29T02:22:08.427Z,23.55
2016-12-29T02:22:23.275Z,23.42
2016-12-29T02:22:38.121Z,23.45
2016-12-29T02:22:52.908Z,23.41
2016-12-29T02:23:07.904Z,23.4
2016-12-29T02:23:23.097Z,23.41
2016-12-29T02:23:37.940Z,23.48
2016-12-29T02:23:52.790Z,23.44
2016-12-29T02:24:07.589Z,23.45
2016-12-29T02:24:22.422Z,23.44
2016-12-29T02:24:37.216Z,23.45
2016-12-29T02:24:51.967Z,23.47
2016-12-29T02:25:06.764Z,23.45
2016-12-29T02:25:21.480Z,23.44
2016-12-29T02:25:36.316Z,23.4
2016-12-29T02:25:51.105Z,23.38
2016-12-29T02:26:05.902Z,23.44
2016-12-29T02:26:20.674Z,23.45
2016-12-29T02:26:35.607Z,23.41
2016-12-29T02:26:50.442Z,23.47
2016-12-29T02:27:05.221Z,23.48
2016-12-29T02:27:20.036Z,23.42
2016-12-29T02:27:34.810Z,23.47
2016-12-29T02:27:49.632Z,23.47
2016-12-29T02:28:04.459Z,23.52
2016-12-29T02:28:19.245Z,23.42
2016-12-29T02:28:34.067Z,23.41
2016-12-29T02:28:48.899Z,23.38
2016-12-29T02:29:03.648Z,23.42
2016-12-29T02:29:18.432Z,23.42
2016-12-29T02:29:33.224Z,23.38
2016-12-29T02:29:48.004Z,23.37
2016-12-29T02:30:02.759Z,23.4
2016-12-29T02:30:17.631Z,23.35
2016-12-29T02:30:32.413Z,23.41
2016-12-29T02:30:47.265Z,23.41
2016-12-29T02:31:02.019Z,23.34
2016-12-29T02:31:16.802Z,23.37
2016-12-29T02:31:31.597Z,23.42
2016-12-29T02:31:46.387Z,23.34
2016-12-29T02:32:01.188Z,23.34
2016-12-29T02:32:15.953Z,23.32
2016-12-29T02:32:30.723Z,23.28
2016-12-29T02:32:45.583Z,23.28
2016-12-29T02:33:00.363Z,23.34
2016-12-29T02:33:15.229Z,23.4
2016-12-29T02:33:30.114Z,23.35
2016-12-29T02:33:44.924Z,23.35
2016-12-29T02:33:59.800Z,23.29
2016-12-29T02:34:14.602Z,23.26
2016-12-29T02:34:29.421Z,23.32
2016-12-29T02:34:44.175Z,23.29
2016-12-29T02:34:58.990Z,23.25
2016-12-29T02:35:13.797Z,23.28
2016-12-29T02:35:28.643Z,23.22
2016-12-29T02:35:43.433Z,23.25
2016-12-29T02:35:58.225Z,23.28
2016-12-29T02:36:13.067Z,23.19
2016-12-29T02:36:27.826Z,23.24
2016-12-29T02:36:42.703Z,23.19
2016-12-29T02:36:57.451Z,23.19
2016-12-29T02:37:12.250Z,23.22
2016-12-29T02:37:27.051Z,23.25
2016-12-29T02:37:41.835Z,23.25
2016-12-29T02:37:56.602Z,23.34
2016-12-29T02:38:11.377Z,23.32
2016-12-29T02:38:26.520Z,23.26
2016-12-29T02:38:41.306Z,23.26
2016-12-29T02:38:56.154Z,23.19
2016-12-29T02:39:10.914Z,23.18
2016-12-29T02:39:25.709Z,23.19
2016-12-29T02:39:40.516Z,23.16
2016-12-29T02:39:55.264Z,23.25
2016-12-29T02:40:10.042Z,23.24
2016-12-29T02:40:24.874Z,23.24
2016-12-29T02:40:39.708Z,23.16
2016-12-29T02:40:54.528Z,23.22
2016-12-29T02:41:09.324Z,23.21
2016-12-29T02:41:24.063Z,23.19
2016-12-29T02:41:38.911Z,23.21
2016-12-29T02:41:53.679Z,23.18
2016-12-29T02:42:08.468Z,23.22
2016-12-29T02:42:23.315Z,23.19
2016-12-29T02:42:38.066Z,23.19
2016-12-29T02:42:52.896Z,23.25
2016-12-29T02:43:07.693Z,23.21
2016-12-29T02:43:22.466Z,23.18
2016-12-29T02:43:37.232Z,23.19
2016-12-29T02:43:52.027Z,23.19
2016-12-29T02:44:06.872Z,23.21
2016-12-29T02:44:21.695Z,23.22
2016-12-29T02:44:36.507Z,23.21
2016-12-29T02:44:51.381Z,23.18
2016-12-29T02:45:06.183Z,23.09
2016-12-29T02:45:20.995Z,23.14
2016-12-29T02:45:35.896Z,23.16
2016-12-29T02:45:50.654Z,23.18
2016-12-29T02:46:05.385Z,23.21
2016-12-29T02:46:20.204Z,23.07
2016-12-29T02:46:34.962Z,23.18
2016-12-29T02:46:49.748Z,23.18
2016-12-29T02:47:04.499Z,23.16
2016-12-29T02:47:19.286Z,23.14
2016-12-29T02:47:34.057Z,23.16
2016-12-29T02:47:48.812Z,23.16
2016-12-29T02:48:03.610Z,23.07
2016-12-29T02:48:18.400Z,23.19
2016-12-29T02:48:33.223Z,23.14
2016-12-29T02:48:47.961Z,23.16
2016-12-29T02:49:02.792Z,23.09
2016-12-29T02:49:17.647Z,23.19
2016-12-29T02:49:32.494Z,23.16
2016-12-29T02:49:47.286Z,23.03
2016-12-29T02:50:02.057Z,23.15
2016-12-29T02:50:16.802Z,23.04
2016-12-29T02:50:31.573Z,23.1
2016-12-29T02:50:46.385Z,23.21
2016-12-29T02:51:01.196Z,23.09
2016-12-29T02:51:15.967Z,23.15
2016-12-29T02:51:30.712Z,23.12
2016-12-29T02:51:45.531Z,23.19
2016-12-29T02:52:00.314Z,23.29
2016-12-29T02:52:15.082Z,23.26
2016-12-29T02:52:29.956Z,23.25
2016-12-29T02:52:44.756Z,23.22
2016-12-29T02:52:59.530Z,23.32
2016-12-29T02:53:14.355Z,23.29
2016-12-29T02:53:29.099Z,23.29
2016-12-29T02:53:45.100Z,23.35
2016-12-29T02:53:59.920Z,23.44
2016-12-29T02:54:14.701Z,23.4
2016-12-29T02:54:29.496Z,23.4
2016-12-29T02:54:44.283Z,23.34
2016-12-29T02:54:59.155Z,23.37
2016-12-29T02:55:13.943Z,23.37
2016-12-29T02:55:28.714Z,23.34
2016-12-29T02:55:43.557Z,23.28
2016-12-29T02:55:58.256Z,23.37
2016-12-29T02:56:13.054Z,23.29
2016-12-29T02:56:27.854Z,23.25
2016-12-29T02:56:42.656Z,23.29
2016-12-29T02:56:57.415Z,23.28
2016-12-29T02:57:12.226Z,23.22
2016-12-29T02:57:27.022Z,23.22
2016-12-29T02:57:41.825Z,23.21
2016-12-29T02:57:56.690Z,23.22
2016-12-29T02:58:11.432Z,23.21
2016-12-29T02:58:26.299Z,23.25
2016-12-29T02:58:41.097Z,23.15
2016-12-29T02:58:55.964Z,23.21
2016-12-29T02:59:10.792Z,23.19
2016-12-29T02:59:25.553Z,23.26
2016-12-29T02:59:40.328Z,23.18
2016-12-29T02:59:55.093Z,23.21
2016-12-29T03:00:09.941Z,23.24
2016-12-29T03:00:24.732Z,23.21
2016-12-29T03:00:39.541Z,23.12
2016-12-29T03:00:54.304Z,23.19
2016-12-29T03:01:09.059Z,23.12
2016-12-29T03:01:23.826Z,23.18
2016-12-29T03:01:38.631Z,23.15
2016-12-29T03:01:53.492Z,23.16
2016-12-29T03:02:08.377Z,23.12
2016-12-29T03:02:23.463Z,23.16
2016-12-29T03:02:38.246Z,23.06
2016-12-29T03:02:53.054Z,23.19
2016-12-29T03:03:07.822Z,23.16
2016-12-29T03:03:22.532Z,23.19
2016-12-29T03:03:37.333Z,23.15
2016-12-29T03:03:52.129Z,23.21
2016-12-29T03:04:06.937Z,23.16
2016-12-29T03:04:21.709Z,23.15
2016-12-29T03:04:36.525Z,23.21
2016-12-29T03:04:51.387Z,23.19
2016-12-29T03:05:06.144Z,23.16
2016-12-29T03:05:20.979Z,23.14
2016-12-29T03:05:35.836Z,23.24
2016-12-29T03:05:50.619Z,23.1
2016-12-29T03:06:05.340Z,23.18
2016-12-29T03:06:20.140Z,23.15
2016-12-29T03:06:34.906Z,23.21
2016-12-29T03:06:49.699Z,23.21
2016-12-29T03:07:04.583Z,23.21
2016-12-29T03:07:19.367Z,23.32
2016-12-29T03:07:34.168Z,23.25
2016-12-29T03:07:49.026Z,23.32
2016-12-29T03:08:03.756Z,23.34
2016-12-29T03:08:18.509Z,23.35
2016-12-29T03:08:33.296Z,23.37
2016-12-29T03:08:48.291Z,23.38
2016-12-29T03:09:03.044Z,23.38
2016-12-29T03:09:17.810Z,23.48
2016-12-29T03:09:32.638Z,23.4
2016-12-29T03:09:47.474Z,23.44
2016-12-29T03:10:02.300Z,23.44
2016-12-29T03:10:17.050Z,23.56
2016-12-29T03:10:31.800Z,23.5
2016-12-29T03:10:46.602Z,23.5
2016-12-29T03:11:01.408Z,23.52
2016-12-29T03:11:16.208Z,23.56
2016-12-29T03:11:30.972Z,23.66